createdAt,value
2018-04-02T00:00:20.965Z,99264.92
2018-04-02T00:02:46.905Z,99265.50
2018-04-02T00:05:12.827Z,99271.65
2018-04-02T00:07:38.812Z,99265.16
2018-04-02T00:10:04.734Z,99265.86
2018-04-02T00:12:30.681Z,99269.23
2018-04-02T00:14:56.599Z,99267.23
2018-04-02T00:17:22.519Z,99269.19
2018-04-02T00:19:48.457Z,99278.59
2018-04-02T00:22:14.380Z,99283.38
2018-04-02T00:24:40.321Z,99287.08
2018-04-02T00:27:06.269Z,99286.48
2018-04-02T00:29:32.387Z,99289.05
2018-04-02T00:31:58.325Z,99290.38
2018-04-02T00:34:24.241Z,99296.52
2018-04-02T00:36:50.170Z,99296.76
2018-04-02T00:39:16.097Z,99298.85
2018-04-02T00:41:42.044Z,99296.91
2018-04-02T00:44:07.965Z,99298.61
2018-04-02T00:46:33.933Z,99303.36
2018-04-02T00:48:59.875Z,99306.50
2018-04-02T00:51:25.836Z,99304.95
2018-04-02T00:53:51.763Z,99305.22
2018-04-02T00:56:17.694Z,99312.41
2018-04-02T00:58:43.621Z,99316.77
2018-04-02T01:01:09.546Z,99318.58
2018-04-02T01:03:35.523Z,99304.88
2018-04-02T01:06:01.483Z,99321.55
2018-04-02T01:08:27.437Z,99322.91
2018-04-02T01:10:53.354Z,99320.98
2018-04-02T01:13:19.325Z,99320.78
2018-04-02T01:15:45.293Z,99320.03
2018-04-02T01:18:11.266Z,99288.08
2018-04-02T01:20:37.206Z,99320.71
2018-04-02T01:23:03.308Z,99326.33
2018-04-02T01:25:29.250Z,99320.73
2018-04-02T01:27:55.172Z,99331.27
2018-04-02T01:30:21.094Z,99325.15
2018-04-02T01:32:47.090Z,99325.63
2018-04-02T01:35:13.017Z,99327.23
2018-04-02T01:37:38.951Z,99332.37
2018-04-02T01:40:05.211Z,99334.25
2018-04-02T01:42:31.142Z,99338.16
2018-04-02T01:44:57.067Z,99339.28
2018-04-02T01:47:22.989Z,99335.28
2018-04-02T01:49:48.908Z,99340.20
2018-04-02T01:52:14.867Z,99345.00
2018-04-02T01:54:40.830Z,99341.34
2018-04-02T01:57:06.810Z,99351.44
2018-04-02T01:59:32.754Z,99341.75
2018-04-02T02:01:58.726Z,99347.45
2018-04-02T02:04:24.691Z,99342.58
2018-04-02T02:06:50.906Z,99344.50
2018-04-02T02:09:16.844Z,99344.88
2018-04-02T02:11:42.782Z,99351.86
2018-04-02T02:14:08.726Z,99340.91
2018-04-02T02:16:34.654Z,99348.39
2018-04-02T02:19:00.602Z,99347.40
2018-04-02T02:21:26.526Z,99346.41
2018-04-02T02:23:52.494Z,99350.00
2018-04-02T02:26:18.438Z,99346.02
2018-04-02T02:28:44.402Z,99354.33
2018-04-02T02:31:10.335Z,99352.38
2018-04-02T02:33:36.306Z,99357.58
2018-04-02T02:36:02.257Z,99355.70
2018-04-02T02:38:28.520Z,99361.70
2018-04-02T02:40:54.440Z,99360.52
2018-04-02T02:43:20.388Z,99360.11
2018-04-02T02:45:46.306Z,99365.17
2018-04-02T02:48:12.250Z,99359.86
2018-04-02T02:50:38.190Z,99369.81
2018-04-02T02:53:04.124Z,99365.45
2018-04-02T02:55:30.089Z,99367.89
2018-04-02T02:57:56.025Z,99364.73
2018-04-02T03:00:21.980Z,99364.67
2018-04-02T03:02:47.925Z,99368.43
2018-04-02T03:05:13.900Z,99368.83
2018-04-02T03:07:39.823Z,99372.48
2018-04-02T03:10:05.734Z,99373.05
2018-04-02T03:12:31.654Z,99373.05
2018-04-02T03:14:57.632Z,99379.84
2018-04-02T03:17:23.574Z,99382.92
2018-04-02T03:19:49.713Z,99382.63
2018-04-02T03:22:15.663Z,99380.52
2018-04-02T03:24:41.585Z,99379.39
2018-04-02T03:27:07.521Z,99378.69
2018-04-02T03:29:33.450Z,99384.56
2018-04-02T03:31:59.382Z,99386.17
2018-04-02T03:34:25.303Z,99382.92
2018-04-02T03:36:51.236Z,99375.97
2018-04-02T03:39:17.184Z,99379.99
2018-04-02T03:41:43.127Z,99383.02
2018-04-02T03:44:09.046Z,99383.73
2018-04-02T03:46:34.984Z,99389.30
2018-04-02T03:49:00.927Z,99390.89
2018-04-02T03:51:26.858Z,99389.67
2018-04-02T03:53:52.812Z,99393.48
2018-04-02T03:56:19.053Z,99384.45
2018-04-02T03:58:45.025Z,99392.59
2018-04-02T04:01:10.968Z,99397.84
2018-04-02T04:03:36.909Z,99402.72
2018-04-02T04:06:02.839Z,99406.77
2018-04-02T04:08:29.050Z,99406.44
2018-04-02T04:10:55.017Z,99398.13
2018-04-02T04:13:20.979Z,99405.63
2018-04-02T04:15:46.902Z,99408.38
2018-04-02T04:18:12.862Z,99412.95
2018-04-02T04:20:38.803Z,99412.41
2018-04-02T04:23:04.747Z,99414.93
2018-04-02T04:25:30.681Z,99416.51
2018-04-02T04:27:56.618Z,99416.72
2018-04-02T04:30:22.579Z,99422.14
2018-04-02T04:32:48.527Z,99423.70
2018-04-02T04:35:14.474Z,99420.69
2018-04-02T04:37:40.725Z,99421.83
2018-04-02T04:40:06.667Z,99424.00
2018-04-02T04:42:32.609Z,99424.50
2018-04-02T04:44:58.553Z,99423.48
2018-04-02T04:47:24.506Z,99422.70
2018-04-02T04:49:50.435Z,99427.98
2018-04-02T04:52:16.396Z,99428.39
2018-04-02T04:54:42.391Z,99421.31
2018-04-02T04:57:08.327Z,99426.48
2018-04-02T04:59:34.366Z,99425.82
2018-04-02T05:02:00.294Z,99422.94
2018-04-02T05:04:26.220Z,99431.92
2018-04-02T05:06:52.141Z,99429.42
2018-04-02T05:09:18.085Z,99430.85
2018-04-02T05:11:44.038Z,99430.63
2018-04-02T05:14:09.985Z,99424.17
2018-04-02T05:16:35.914Z,99433.81
2018-04-02T05:19:01.859Z,99423.55
2018-04-02T05:21:27.815Z,99432.23
2018-04-02T05:23:53.735Z,99433.50
2018-04-02T05:26:19.679Z,99437.31
2018-04-02T05:28:45.835Z,99437.77
2018-04-02T05:31:11.773Z,99438.69
2018-04-02T05:33:37.705Z,99434.65
2018-04-02T05:36:03.652Z,99439.02
2018-04-02T05:38:29.717Z,99444.41
2018-04-02T05:40:55.709Z,99449.84
2018-04-02T05:43:21.595Z,99456.49
2018-04-02T05:45:47.525Z,99457.69
2018-04-02T05:48:13.447Z,99460.87
2018-04-02T05:50:39.411Z,99458.69
2018-04-02T05:53:05.337Z,99457.88
2018-04-02T05:55:31.261Z,99458.14
2018-04-02T05:57:57.307Z,99463.60
2018-04-02T06:00:23.265Z,99465.02
2018-04-02T06:02:49.211Z,99465.43
2018-04-02T06:05:15.239Z,99462.89
2018-04-02T06:07:41.143Z,99468.63
2018-04-02T06:10:07.090Z,99467.94
2018-04-02T06:12:33.035Z,99469.38
2018-04-02T06:14:58.973Z,99468.82
2018-04-02T06:17:24.935Z,99472.72
2018-04-02T06:19:50.863Z,99471.02
2018-04-02T06:22:16.798Z,99476.42
2018-04-02T06:24:42.910Z,99475.58
2018-04-02T06:27:08.868Z,99469.34
2018-04-02T06:29:34.794Z,99473.61
2018-04-02T06:32:00.761Z,99475.81
2018-04-02T06:34:26.679Z,99473.66
2018-04-02T06:36:52.632Z,99473.34
2018-04-02T06:39:18.554Z,99478.98
2018-04-02T06:41:44.522Z,99474.84
2018-04-02T06:44:10.474Z,99474.42
2018-04-02T06:46:36.447Z,99476.92
2018-04-02T06:49:02.382Z,99482.97
2018-04-02T06:51:28.343Z,99480.09
2018-04-02T06:53:54.319Z,99478.02
2018-04-02T06:56:20.250Z,99489.84
2018-04-02T06:58:46.337Z,99479.82
2018-04-02T07:01:12.276Z,99479.28
2018-04-02T07:03:38.245Z,99482.20
2018-04-02T07:06:04.230Z,99483.73
2018-04-02T07:08:30.221Z,99482.00
2018-04-02T07:10:56.260Z,99478.66
2018-04-02T07:13:22.206Z,99487.96
2018-04-02T07:15:48.148Z,99484.16
2018-04-02T07:18:14.428Z,99490.06
2018-04-02T07:20:40.388Z,99493.11
2018-04-02T07:23:06.385Z,99494.72
2018-04-02T07:25:32.286Z,99494.10
2018-04-02T07:27:58.253Z,99498.07
2018-04-02T07:30:24.178Z,99496.95
2018-04-02T07:32:50.122Z,99499.50
2018-04-02T07:35:16.075Z,99494.89
2018-04-02T07:37:42.040Z,99500.81
2018-04-02T07:40:07.973Z,99505.41
2018-04-02T07:42:33.894Z,99505.82
2018-04-02T07:44:59.882Z,99512.06
2018-04-02T07:47:25.865Z,99511.61
2018-04-02T07:49:51.851Z,99513.24
2018-04-02T07:52:17.778Z,99519.09
2018-04-02T07:54:43.768Z,99519.92
2018-04-02T07:57:09.757Z,99519.51
2018-04-02T07:59:35.708Z,99522.34
2018-04-02T08:02:01.664Z,99519.36
2018-04-02T08:04:27.647Z,99515.65
2018-04-02T08:06:53.574Z,99514.77
2018-04-02T08:09:19.522Z,99516.45
2018-04-02T08:11:45.473Z,99516.02
2018-04-02T08:14:11.408Z,99513.50
2018-04-02T08:16:37.361Z,99513.43
2018-04-02T08:19:03.314Z,99520.61
2018-04-02T08:21:29.307Z,99516.00
2018-04-02T08:23:55.238Z,99516.78
2018-04-02T08:26:21.223Z,99513.51
2018-04-02T08:28:47.161Z,99514.33
2018-04-02T08:31:13.173Z,99523.20
2018-04-02T08:33:39.095Z,99523.63
2018-04-02T08:36:05.183Z,99530.33
2018-04-02T08:38:31.132Z,99531.58
2018-04-02T08:40:57.509Z,99519.83
2018-04-02T08:43:23.467Z,99524.48
2018-04-02T08:45:49.421Z,99529.14
2018-04-02T08:48:15.370Z,99533.27
2018-04-02T08:50:41.339Z,99527.43
2018-04-02T08:53:07.308Z,99533.34
2018-04-02T08:55:33.260Z,99537.50
2018-04-02T08:57:59.254Z,99534.25
2018-04-02T09:00:25.283Z,99533.73
2018-04-02T09:02:51.211Z,99534.58
2018-04-02T09:05:17.158Z,99542.58
2018-04-02T09:07:43.171Z,99537.96
2018-04-02T09:10:09.141Z,99532.08
2018-04-02T09:12:35.101Z,99528.34
2018-04-02T09:15:01.061Z,99524.05
2018-04-02T09:17:26.990Z,99519.95
2018-04-02T09:19:52.942Z,99520.41
2018-04-02T09:22:18.868Z,99525.88
2018-04-02T09:24:44.865Z,99521.20
2018-04-02T09:27:10.797Z,99508.27
2018-04-02T09:29:36.759Z,99515.82
2018-04-02T09:32:02.725Z,99517.08
2018-04-02T09:34:28.673Z,99517.97
2018-04-02T09:36:54.626Z,99519.66
2018-04-02T09:39:20.569Z,99517.20
2018-04-02T09:41:46.512Z,99509.65
2018-04-02T09:44:12.449Z,99506.31
2018-04-02T09:46:38.377Z,99503.78
2018-04-02T09:49:04.316Z,99508.44
2018-04-02T09:51:30.254Z,99502.17
2018-04-02T09:53:56.179Z,99499.22
2018-04-02T09:56:22.196Z,99496.70
2018-04-02T09:58:48.174Z,99497.58
2018-04-02T10:01:14.094Z,99501.36
2018-04-02T10:03:40.072Z,99492.49
2018-04-02T10:06:06.031Z,99482.42
2018-04-02T10:08:32.020Z,99485.00
2018-04-02T10:10:57.967Z,99473.20
2018-04-02T10:13:23.923Z,99478.69
2018-04-02T10:15:49.910Z,99470.30
2018-04-02T10:18:15.842Z,99468.61
2018-04-02T10:20:41.801Z,99468.59
2018-04-02T10:23:07.724Z,99463.55
2018-04-02T10:25:33.652Z,99462.28
2018-04-02T10:27:59.612Z,99456.83
2018-04-02T10:30:25.564Z,99446.73
2018-04-02T10:32:51.499Z,99449.27
2018-04-02T10:35:17.473Z,99453.05
2018-04-02T10:37:43.417Z,99442.95
2018-04-02T10:40:09.401Z,99439.59
2018-04-02T10:42:35.348Z,99434.97
2018-04-02T10:45:01.328Z,99432.45
2018-04-02T10:47:27.252Z,99442.13
2018-04-02T10:49:53.198Z,99434.55
2018-04-02T10:52:19.321Z,99426.13
2018-04-02T10:54:45.332Z,99419.84
2018-04-02T10:57:11.282Z,99427.41
2018-04-02T10:59:37.325Z,99419.42
2018-04-02T11:02:04.334Z,99421.94
2018-04-02T11:04:30.291Z,99411.02
2018-04-02T11:06:56.846Z,99413.09
2018-04-02T11:09:22.827Z,99407.20
2018-04-02T11:11:48.780Z,99398.80
2018-04-02T11:14:14.722Z,99394.55
2018-04-02T11:16:40.660Z,99394.16
2018-04-02T11:19:06.582Z,99389.13
2018-04-02T11:21:32.521Z,99381.53
2018-04-02T11:23:58.479Z,99384.47
2018-04-02T11:26:24.405Z,99388.29
2018-04-02T11:28:50.503Z,99391.23
2018-04-02T11:31:16.436Z,99387.87
2018-04-02T11:33:42.361Z,99387.02
2018-04-02T11:36:08.317Z,99381.56
2018-04-02T11:38:34.269Z,99374.38
2018-04-02T11:41:00.204Z,99374.41
2018-04-02T11:43:26.157Z,99369.37
2018-04-02T11:45:52.095Z,99371.47
2018-04-02T11:48:18.049Z,99368.52
2018-04-02T11:50:43.997Z,99369.39
2018-04-02T11:53:09.948Z,99360.11
2018-04-02T11:55:35.901Z,99362.19
2018-04-02T11:58:01.846Z,99355.85
2018-04-02T12:00:27.818Z,99349.08
2018-04-02T12:02:53.754Z,99346.94
2018-04-02T12:05:19.700Z,99347.77
2018-04-02T12:07:45.637Z,99342.73
2018-04-02T12:10:11.625Z,99342.30
2018-04-02T12:12:37.579Z,99340.58
2018-04-02T12:15:03.529Z,99332.56
2018-04-02T12:17:29.798Z,99329.64
2018-04-02T12:19:55.739Z,99329.17
2018-04-02T12:22:21.685Z,99319.92
2018-04-02T12:24:47.622Z,99320.29
2018-04-02T12:27:13.550Z,99313.98
2018-04-02T12:29:39.515Z,99310.23
2018-04-02T12:32:05.491Z,99302.23
2018-04-02T12:34:31.441Z,99308.48
2018-04-02T12:36:57.391Z,99296.43
2018-04-02T12:39:23.334Z,99301.44
2018-04-02T12:41:49.287Z,99303.47
2018-04-02T12:44:15.217Z,99304.63
2018-04-02T12:46:41.216Z,99303.37
2018-04-02T12:49:07.246Z,99304.14
2018-04-02T12:51:33.183Z,99302.95
2018-04-02T12:53:59.121Z,99294.94
2018-04-02T12:56:25.055Z,99297.05
2018-04-02T12:58:50.985Z,99286.56
2018-04-02T13:01:16.928Z,99289.97
2018-04-02T13:03:42.879Z,99281.94
2018-04-02T13:06:08.830Z,99282.31
2018-04-02T13:08:34.839Z,99277.69
2018-04-02T13:11:00.799Z,99276.51
2018-04-02T13:13:26.756Z,99275.20
2018-04-02T13:15:52.702Z,99276.45
2018-04-02T13:18:18.653Z,99267.95
2018-04-02T13:20:44.659Z,99270.98
2018-04-02T13:23:10.641Z,99263.70
2018-04-02T13:25:36.586Z,99261.16
2018-04-02T13:28:02.558Z,99251.89
2018-04-02T13:30:28.490Z,99247.69
2018-04-02T13:32:55.466Z,99251.92
2018-04-02T13:35:21.388Z,99240.56
2018-04-02T13:37:47.352Z,99249.89
2018-04-02T13:40:13.294Z,99233.38
2018-04-02T13:42:39.254Z,99235.04
2018-04-02T13:45:05.218Z,99237.16
2018-04-02T13:47:32.470Z,99234.61
2018-04-02T13:49:58.426Z,99244.27
2018-04-02T13:52:24.380Z,99238.83
2018-04-02T13:54:50.410Z,99233.75
2018-04-02T13:57:16.338Z,99234.59
2018-04-02T13:59:42.299Z,99225.84
2018-04-02T14:02:08.256Z,99229.17
2018-04-02T14:04:34.195Z,99223.66
2018-04-02T14:07:00.146Z,99221.55
2018-04-02T14:09:26.094Z,99218.18
2018-04-02T14:11:52.026Z,99224.89
2018-04-02T14:14:17.962Z,99221.95
2018-04-02T14:16:43.899Z,99225.70
2018-04-02T14:19:09.847Z,99220.23
2018-04-02T14:21:35.799Z,99213.50
2018-04-02T14:24:01.736Z,99216.94
2018-04-02T14:26:27.682Z,99207.59
2018-04-02T14:28:53.655Z,99208.42
2018-04-02T14:31:19.637Z,99212.64
2018-04-02T14:33:45.563Z,99203.38
2018-04-02T14:36:11.522Z,99199.98
2018-04-02T14:38:37.467Z,99201.22
2018-04-02T14:41:03.446Z,99192.91
2018-04-02T14:43:29.385Z,99199.20
2018-04-02T14:45:55.392Z,99193.63
2018-04-02T14:48:21.416Z,99179.33
2018-04-02T14:50:47.497Z,99179.84
2018-04-02T14:53:13.790Z,99189.93
2018-04-02T14:55:39.786Z,99185.24
2018-04-02T14:58:05.776Z,99179.28
2018-04-02T15:00:33.094Z,99170.53
2018-04-02T15:02:59.061Z,99167.63
2018-04-02T15:05:25.015Z,99170.87
2018-04-02T15:07:50.956Z,99165.80
2018-04-02T15:10:18.002Z,99166.61
2018-04-02T15:12:43.959Z,99158.59
2018-04-02T15:15:09.887Z,99161.09
2018-04-02T15:17:35.855Z,99158.58
2018-04-02T15:20:01.814Z,99153.11
2018-04-02T15:22:27.744Z,99151.85
2018-04-02T15:24:53.743Z,99153.95
2018-04-02T15:27:19.693Z,99146.82
2018-04-02T15:29:45.654Z,99141.84
2018-04-02T15:32:11.635Z,99146.95
2018-04-02T15:34:37.589Z,99138.90
2018-04-02T15:37:03.589Z,99138.02
2018-04-02T15:39:29.519Z,99130.45
2018-04-02T15:41:55.663Z,99132.92
2018-04-02T15:44:21.610Z,99133.67
2018-04-02T15:46:47.551Z,99132.40
2018-04-02T15:49:13.527Z,99134.53
2018-04-02T15:51:39.484Z,99139.98
2018-04-02T15:54:05.518Z,99101.91
2018-04-02T15:56:31.476Z,99130.80
2018-04-02T15:58:57.470Z,99122.86
2018-04-02T16:01:23.414Z,99121.19
2018-04-02T16:03:49.400Z,99117.45
2018-04-02T16:06:15.388Z,99118.20
2018-04-02T16:08:41.359Z,99117.02
2018-04-02T16:11:07.341Z,99125.36
2018-04-02T16:13:34.310Z,99116.08
2018-04-02T16:16:00.307Z,99114.45
2018-04-02T16:18:26.430Z,99106.86
2018-04-02T16:20:52.385Z,99105.16
2018-04-02T16:23:18.331Z,99109.77
2018-04-02T16:25:44.279Z,99103.84
2018-04-02T16:28:10.212Z,99096.31
2018-04-02T16:30:36.220Z,99094.64
2018-04-02T16:33:02.270Z,99077.77
2018-04-02T16:35:28.342Z,99088.27
2018-04-02T16:37:54.338Z,99074.02
2018-04-02T16:40:20.310Z,99076.97
2018-04-02T16:42:46.328Z,99056.77
2018-04-02T16:45:12.283Z,99056.72
2018-04-02T16:47:38.224Z,99056.73
2018-04-02T16:50:04.180Z,99056.33
2018-04-02T16:52:30.255Z,99054.16
2018-04-02T17:01:42.116Z,99058.05
2018-04-02T17:04:08.068Z,99054.30
2018-04-02T17:06:34.048Z,99058.84
2018-04-02T17:09:00.098Z,99054.25
2018-04-02T17:11:26.059Z,99061.04
2018-04-02T17:13:52.022Z,99059.39
2018-04-02T17:16:17.966Z,99059.00
2018-04-02T17:18:43.977Z,99067.86
2018-04-02T17:21:09.919Z,99063.16
2018-04-02T17:23:35.874Z,99064.09
2018-04-02T17:26:01.800Z,99066.22
2018-04-02T17:28:27.752Z,99073.00
2018-04-02T17:30:53.672Z,99069.26
2018-04-02T17:33:19.674Z,99065.14
2018-04-02T17:35:45.634Z,99079.47
2018-04-02T17:38:11.672Z,99081.94
2018-04-02T17:40:37.634Z,99089.46
2018-04-02T17:43:03.660Z,99089.95
2018-04-02T17:45:29.578Z,99085.78
2018-04-02T17:47:57.806Z,99090.05
2018-04-02T17:50:23.918Z,99084.23
2018-04-02T17:52:49.852Z,99089.41
2018-04-02T17:55:15.891Z,99093.11
2018-04-02T17:57:41.843Z,99066.78
2018-04-02T18:00:08.019Z,99090.59
2018-04-02T18:02:33.952Z,99088.59
2018-04-02T18:05:01.912Z,99084.81
2018-04-02T18:07:27.879Z,99086.16
2018-04-02T18:09:53.847Z,99071.95
2018-04-02T18:12:20.079Z,99077.84
2018-04-02T18:14:46.009Z,99074.80
2018-04-02T18:17:11.959Z,99079.92
2018-04-02T18:19:37.970Z,99077.02
2018-04-02T18:22:03.876Z,99079.91
2018-04-02T18:24:30.001Z,99079.63
2018-04-02T18:26:56.031Z,99077.13
2018-04-02T18:29:22.056Z,99077.16
2018-04-02T18:31:48.078Z,99073.69
2018-04-02T18:34:14.101Z,99071.05
2018-04-02T18:36:40.116Z,99082.14
2018-04-02T18:39:06.143Z,99081.18
2018-04-02T18:41:32.178Z,99074.78
2018-04-02T18:43:58.183Z,99076.02
2018-04-02T18:46:24.455Z,99083.53
2018-04-02T18:48:50.446Z,99081.89
2018-04-02T18:51:16.498Z,99078.97
2018-04-02T18:53:43.546Z,99077.69
2018-04-02T18:56:09.644Z,99076.38
2018-04-02T18:58:35.734Z,99080.46
2018-04-02T19:01:01.702Z,99075.34
2018-04-02T19:03:27.730Z,99070.97
2018-04-02T19:05:54.769Z,99078.54
2018-04-02T19:08:20.801Z,99082.34
2018-04-02T19:10:47.856Z,99074.45
2018-04-02T19:13:13.971Z,99069.97
2018-04-02T19:15:41.013Z,99071.30
2018-04-02T19:18:07.095Z,99067.70
2018-04-02T19:20:33.076Z,99065.30
2018-04-02T19:22:59.401Z,99060.30
2018-04-02T19:25:25.407Z,99061.17
2018-04-02T19:27:52.371Z,99056.08
2018-04-02T19:30:18.662Z,99053.93
2018-04-02T19:32:44.647Z,99051.44
2018-04-02T19:35:10.609Z,99054.45
2018-04-02T19:37:36.557Z,99056.14
2018-04-02T19:40:02.534Z,99055.34
2018-04-02T19:42:28.501Z,99056.17
2018-04-02T19:44:54.424Z,99052.36
2018-04-02T19:47:20.355Z,99054.41
2018-04-02T19:49:46.329Z,99052.59
2018-04-02T19:52:12.305Z,99046.77
2018-04-02T19:54:38.237Z,99048.50
2018-04-02T19:57:04.178Z,99037.28
2018-04-02T19:59:30.130Z,99039.83
2018-04-02T20:01:56.286Z,99039.03
2018-04-02T20:04:22.308Z,99033.65
2018-04-02T20:06:48.266Z,99039.40
2018-04-02T20:09:14.195Z,99035.55
2018-04-02T20:11:40.134Z,99029.25
2018-04-02T20:14:06.123Z,99026.59
2018-04-02T20:16:32.062Z,99035.40
2018-04-02T20:18:58.015Z,99027.48
2018-04-02T20:21:23.994Z,99025.70
2018-04-02T20:23:49.921Z,99016.52
2018-04-02T20:26:16.312Z,99027.88
2018-04-02T20:28:42.331Z,99020.47
2018-04-02T20:31:08.253Z,99017.68
2018-04-02T20:33:34.194Z,99014.25
2018-04-02T20:36:00.134Z,99007.89
2018-04-02T20:38:26.106Z,99012.89
2018-04-02T20:40:52.056Z,99007.47
2018-04-02T20:43:18.039Z,99002.50
2018-04-02T20:45:44.034Z,98999.52
2018-04-02T20:48:09.966Z,98989.97
2018-04-02T20:50:35.918Z,98992.38
2018-04-02T20:53:01.930Z,98982.34
2018-04-02T20:55:27.870Z,98979.76
2018-04-02T20:57:53.839Z,98980.55
2018-04-02T21:00:19.766Z,98969.01
2018-04-02T21:02:45.709Z,98976.12
2018-04-02T21:05:11.640Z,98967.62
2018-04-02T21:07:37.611Z,98963.48
2018-04-02T21:10:03.544Z,98960.56
2018-04-02T21:12:29.562Z,98956.37
2018-04-02T21:14:55.522Z,98956.67
2018-04-02T21:17:21.535Z,98951.63
2018-04-02T21:19:47.818Z,98955.44
2018-04-02T21:22:13.782Z,98951.27
2018-04-02T21:24:39.718Z,98949.67
2018-04-02T21:27:05.670Z,98947.58
2018-04-02T21:29:31.615Z,98936.64
2018-04-02T21:31:57.566Z,98935.83
2018-04-02T21:34:23.513Z,98937.83
2018-04-02T21:36:49.442Z,98939.55
2018-04-02T21:39:15.409Z,98937.83
2018-04-02T21:41:41.362Z,98932.86
2018-04-02T21:44:07.306Z,98932.86
2018-04-02T21:46:33.270Z,98936.18
2018-04-02T21:48:59.232Z,98927.39
2018-04-02T21:51:25.218Z,98931.16
2018-04-02T21:53:51.128Z,98928.70
2018-04-02T21:56:17.058Z,98930.23
2018-04-02T21:58:42.986Z,98929.94
2018-04-02T22:01:08.908Z,98924.88
2018-04-02T22:03:34.871Z,98924.84
2018-04-02T22:06:00.818Z,98931.13
2018-04-02T22:08:26.743Z,98927.36
2018-04-02T22:10:52.664Z,98924.44
2018-04-02T22:13:18.614Z,98927.83
2018-04-02T22:15:44.636Z,98907.69
2018-04-02T22:18:10.598Z,98914.74
2018-04-02T22:20:36.526Z,98907.73
2018-04-02T22:23:02.469Z,98906.92
2018-04-02T22:25:28.394Z,98901.88
2018-04-02T22:27:54.318Z,98906.84
2018-04-02T22:30:20.274Z,98902.63
2018-04-02T22:32:46.225Z,98905.13
2018-04-02T22:35:12.186Z,98897.17
2018-04-02T22:37:38.131Z,98900.91
2018-04-02T22:40:04.189Z,98897.25
2018-04-02T22:42:30.153Z,98898.39
2018-04-02T22:44:56.097Z,98895.08
2018-04-02T22:47:22.055Z,98888.87
2018-04-02T22:49:47.981Z,98887.92
2018-04-02T22:52:13.960Z,98886.28
2018-04-02T22:54:39.886Z,98880.91
2018-04-02T22:57:05.836Z,98882.64
2018-04-02T22:59:31.793Z,98875.10
2018-04-02T23:01:57.718Z,98868.81
2018-04-02T23:04:23.828Z,98870.92
2018-04-02T23:06:49.752Z,98869.60
2018-04-02T23:09:15.677Z,98855.84
2018-04-02T23:11:41.770Z,98873.83
2018-04-02T23:14:07.687Z,98862.38
2018-04-02T23:16:33.620Z,98865.77
2018-04-02T23:18:59.598Z,98862.06
2018-04-02T23:21:25.524Z,98857.90
2018-04-02T23:23:51.480Z,98859.16
2018-04-02T23:26:17.424Z,98838.67
2018-04-02T23:28:43.735Z,98859.13
2018-04-02T23:31:09.713Z,98851.17
2018-04-02T23:33:35.649Z,98850.80
2018-04-02T23:36:01.621Z,98846.62
2018-04-02T23:38:27.538Z,98849.11
2018-04-02T23:40:53.487Z,98843.25
2018-04-02T23:43:19.449Z,98836.06
2018-04-02T23:45:45.403Z,98833.47
2018-04-02T23:48:11.347Z,98841.13
2018-04-02T23:50:37.333Z,98833.02
2018-04-02T23:53:03.454Z,98829.33
2018-04-02T23:55:29.395Z,98825.05
2018-04-02T23:57:55.335Z,98823.03
